Time;durP1;ratioP1;P1;durP2;ratioP2;P2;SDS_P1;SDS_P2;PMS_P1;PMS_P2;Temp;Humidity;BMP_temperature;BMP_pressure;BME280_temperature;BME280_humidity;BME280_pressure;Samples;Min_cycle;Max_cycle;Signal;HPM_P1;HPM_P2
2023/03/18 00:00:15;;;;;;;10.43;4.55;;;;;;;11.45;100.00;100601.78;5069986;28;20050;-63
2023/03/18 00:02:44;;;;;;;10.48;4.30;;;;;;;11.42;100.00;100602.00;5070695;28;20052;-63
2023/03/18 00:05:13;;;;;;;15.48;4.90;;;;;;;11.38;100.00;100603.19;5070559;28;20503;-63
2023/03/18 00:07:42;;;;;;;10.13;4.43;;;;;;;11.36;100.00;100612.97;5073477;28;20101;-63
2023/03/18 00:10:13;;;;;;;9.25;4.60;;;;;;;11.33;100.00;100622.78;5074607;28;20052;-63
2023/03/18 00:12:42;;;;;;;9.50;4.75;;;;;;;11.29;100.00;100625.75;5070817;28;20128;-62
2023/03/18 00:15:13;;;;;;;9.13;4.30;;;;;;;11.24;100.00;100627.88;5069266;28;20056;-63
2023/03/18 00:17:42;;;;;;;12.32;4.65;;;;;;;11.21;100.00;100630.69;5070979;28;20068;-63
2023/03/18 00:20:12;;;;;;;10.57;4.65;;;;;;;11.15;100.00;100618.81;5062187;28;20068;-63
2023/03/18 00:22:42;;;;;;;9.07;4.75;;;;;;;11.13;100.00;100620.72;5067214;28;20044;-63
2023/03/18 00:25:13;;;;;;;9.30;4.30;;;;;;;11.10;100.00;100619.16;5062100;28;20044;-63
2023/03/18 00:27:42;;;;;;;12.43;4.53;;;;;;;11.04;100.00;100624.00;5064958;28;20075;-63
2023/03/18 00:30:12;;;;;;;11.55;4.63;;;;;;;10.98;100.00;100615.59;5063093;28;20040;-63
2023/03/18 00:32:41;;;;;;;10.98;4.85;;;;;;;10.97;100.00;100613.91;5064300;28;20055;-64
2023/03/18 00:35:11;;;;;;;10.80;4.63;;;;;;;10.91;100.00;100619.63;5054658;28;20041;-62
2023/03/18 00:37:39;;;;;;;9.38;4.53;;;;;;;10.86;100.00;100620.88;5062526;28;20083;-62
2023/03/18 00:40:16;;;;;;;10.38;4.80;;;;;;;10.80;100.00;100625.63;5065247;28;20037;-62
2023/03/18 00:42:49;;;;;;;10.60;5.18;;;;;;;10.78;100.00;100630.16;5067719;28;20059;-62
2023/03/18 00:45:18;;;;;;;11.43;4.93;;;;;;;10.77;100.00;100635.50;5062641;28;20054;-62
2023/03/18 00:47:47;;;;;;;10.27;5.40;;;;;;;10.72;100.00;100627.94;5068828;28;20376;-62
2023/03/18 00:50:17;;;;;;;11.50;5.53;;;;;;;10.71;100.00;100633.31;5064658;28;20051;-62
2023/03/18 00:52:45;;;;;;;8.60;4.72;;;;;;;10.69;100.00;100637.81;5064845;28;20048;-62
2023/03/18 00:55:14;;;;;;;11.13;5.25;;;;;;;10.63;100.00;100642.59;5063869;28;20557;-62
2023/03/18 00:57:42;;;;;;;10.52;5.18;;;;;;;10.60;100.00;100648.03;5056611;28;20041;-62
2023/03/18 01:00:15;;;;;;;12.30;5.30;;;;;;;10.61;100.00;100649.72;5060474;28;20568;-62
2023/03/18 01:02:44;;;;;;;;;;;;;;;10.59;100.00;100648.13;5064963;28;20144;-62
2023/03/18 01:05:13;;;;;;;11.23;5.38;;;;;;;10.56;100.00;100643.09;5073845;28;19920;-62
2023/03/18 01:07:42;;;;;;;12.10;5.53;;;;;;;10.54;100.00;100645.84;5058895;28;20547;-62
2023/03/18 01:10:13;;;;;;;11.75;5.32;;;;;;;10.51;100.00;100655.72;5067535;28;20036;-62
2023/03/18 01:12:42;;;;;;;12.50;5.93;;;;;;;10.47;100.00;100648.03;5071278;28;20480;-62
2023/03/18 01:15:15;;;;;;;10.85;6.43;;;;;;;10.43;100.00;100649.19;5067627;28;20127;-62
2023/03/18 01:17:44;;;;;;;;;;;;;;;10.41;100.00;100650.25;5070553;28;20044;-62
2023/03/18 01:20:15;;;;;;;13.50;6.38;;;;;;;10.40;100.00;100649.41;5069569;28;19920;-62
2023/03/18 01:22:44;;;;;;;12.40;5.80;;;;;;;10.37;100.00;100640.88;5069577;28;20070;-62
2023/03/18 01:25:15;;;;;;;14.52;6.82;;;;;;;10.38;100.00;100643.41;5052188;28;20045;-62
2023/03/18 01:27:44;;;;;;;11.85;6.65;;;;;;;10.36;100.00;100634.78;5049825;28;20051;-62
2023/03/18 01:30:15;;;;;;;12.90;7.38;;;;;;;10.36;100.00;100633.94;5047620;28;20053;-61
2023/03/18 01:32:44;;;;;;;13.73;6.43;;;;;;;10.40;100.00;100646.78;5049249;28;20057;-62
2023/03/18 01:35:12;;;;;;;12.40;6.82;;;;;;;10.34;100.00;100639.25;5060459;28;20376;-62
2023/03/18 01:37:42;;;;;;;15.35;6.82;;;;;;;10.30;100.00;100649.13;5064590;28;20045;-62
2023/03/18 01:40:13;;;;;;;11.88;6.50;;;;;;;10.23;100.00;100650.50;5060011;28;20049;-62
2023/03/18 01:42:44;;;;;;;13.90;6.40;;;;;;;10.24;100.00;100656.59;5065850;28;20062;-62
2023/03/18 01:45:18;;;;;;;11.82;6.40;;;;;;;10.23;100.00;100657.53;5065971;28;20040;-62
2023/03/18 01:47:48;;;;;;;14.23;6.30;;;;;;;10.23;100.00;100663.63;5063821;28;20513;-62
2023/03/18 01:50:21;;;;;;;11.52;6.38;;;;;;;10.27;100.00;100656.41;5066334;28;20053;-62
2023/03/18 01:52:54;;;;;;;12.63;6.55;;;;;;;10.26;100.00;100663.41;5066773;28;20455;-62
2023/03/18 01:55:26;;;;;;;11.35;5.88;;;;;;;10.22;100.00;100658.47;5068401;28;20063;-62
2023/03/18 01:57:55;;;;;;;13.05;6.45;;;;;;;10.22;100.00;100658.47;5062378;28;20036;-54
2023/03/18 02:00:25;;;;;;;13.27;6.50;;;;;;;10.19;100.00;100659.53;5065025;28;20047;-52
2023/03/18 02:02:54;;;;;;;11.60;5.95;;;;;;;10.15;100.00;100658.88;5059358;28;20083;-51
2023/03/18 02:05:26;;;;;;;12.02;5.88;;;;;;;10.15;100.00;100653.63;5058842;28;20044;-51
2023/03/18 02:07:55;;;;;;;11.18;6.35;;;;;;;10.23;100.00;100661.00;5057890;28;20086;-50
2023/03/18 02:10:26;;;;;;;13.00;6.18;;;;;;;10.18;100.00;100657.84;5061150;28;20468;-51
2023/03/18 02:12:59;;;;;;;13.05;6.28;;;;;;;10.18;100.00;100657.00;5059289;28;20048;-49
2023/03/18 02:15:31;;;;;;;12.68;6.80;;;;;;;10.13;100.00;100649.44;5064055;28;20090;-50
2023/03/18 02:18:04;;;;;;;14.65;6.88;;;;;;;10.09;100.00;100653.19;5057334;28;20053;-48
2023/03/18 02:20:51;;;;;;;13.80;6.80;;;;;;;10.10;100.00;100642.59;5058536;28;20050;-52
2023/03/18 02:23:28;;;;;;;12.27;7.10;;;;;;;10.12;100.00;100653.00;5060068;28;20044;-52
2023/03/18 02:26:03;;;;;;;18.08;7.32;;;;;;;10.10;100.00;100657.50;5059851;28;20040;-50
2023/03/18 02:28:36;;;;;;;12.02;6.72;;;;;;;10.08;100.00;100651.53;5062551;28;20098;-52
2023/03/18 02:31:10;;;;;;;14.80;6.60;;;;;;;9.98;100.00;100649.50;5064567;28;20414;-51
2023/03/18 02:33:42;;;;;;;12.98;6.30;;;;;;;9.97;100.00;100642.53;5057263;28;20048;-52
2023/03/18 02:36:14;;;;;;;15.15;6.55;;;;;;;9.97;100.00;100645.19;5058557;28;20028;-52
2023/03/18 02:38:44;;;;;;;11.80;6.20;;;;;;;9.96;100.00;100651.38;5061272;28;20125;-49
2023/03/18 02:41:15;;;;;;;11.27;6.18;;;;;;;9.95;100.00;100648.84;5063764;28;20049;-50
2023/03/18 02:43:46;;;;;;;12.77;6.53;;;;;;;9.91;100.00;100645.59;5065312;28;21058;-50
2023/03/18 02:46:26;;;;;;;14.02;7.03;;;;;;;9.87;100.00;100654.63;5060212;28;20059;-50
2023/03/18 02:48:56;;;;;;;11.68;6.95;;;;;;;9.84;100.00;100660.03;5055660;28;20037;-51
2023/03/18 02:51:25;;;;;;;12.10;6.43;;;;;;;9.83;100.00;100663.63;5063592;28;20055;-52
2023/03/18 02:53:57;;;;;;;14.40;7.13;;;;;;;9.80;100.00;100669.06;5056940;28;20062;-50
2023/03/18 02:56:25;;;;;;;14.70;7.20;;;;;;;9.80;100.00;100679.56;5060361;28;20056;-51
2023/03/18 02:58:56;;;;;;;12.02;7.28;;;;;;;9.77;100.00;100680.63;5064986;28;20041;-50
2023/03/18 03:01:25;;;;;;;14.38;8.40;;;;;;;9.77;100.00;100682.41;5065075;28;20048;-51
2023/03/18 03:03:54;;;;;;;14.07;8.13;;;;;;;9.76;100.00;100678.94;5070921;28;20041;-51
2023/03/18 03:06:23;;;;;;;16.15;8.25;;;;;;;9.78;100.00;100671.81;5058138;28;20048;-52
2023/03/18 03:08:52;;;;;;;18.40;9.27;;;;;;;9.86;100.00;100680.97;5061587;28;20055;-52
2023/03/18 03:11:21;;;;;;;13.90;8.57;;;;;;;9.85;100.00;100680.13;5073066;28;20044;-53
2023/03/18 03:13:50;;;;;;;17.02;9.45;;;;;;;9.88;100.00;100681.72;5070362;28;20076;-53
2023/03/18 03:16:20;;;;;;;15.82;9.10;;;;;;;9.89;100.00;100686.03;5060109;28;20457;-52
2023/03/18 03:18:49;;;;;;;17.27;9.73;;;;;;;9.91;100.00;100681.50;5061379;28;21114;-53
2023/03/18 03:21:18;;;;;;;19.48;11.27;;;;;;;9.86;100.00;100679.19;5058256;28;20051;-52
2023/03/18 03:23:47;;;;;;;19.70;11.48;;;;;;;9.87;100.00;100678.25;5058410;28;20059;-54
2023/03/18 03:26:17;;;;;;;22.17;11.90;;;;;;;9.85;100.00;100677.50;5067619;28;20041;-53
2023/03/18 03:28:45;;;;;;;22.60;12.20;;;;;;;9.85;100.00;100679.28;5063900;28;20044;-55
2023/03/18 03:31:15;;;;;;;24.30;12.88;;;;;;;9.84;100.00;100683.69;5070303;28;20036;-53
2023/03/18 03:33:45;;;;;;;20.40;12.02;;;;;;;9.81;100.00;100683.91;5063795;28;20118;-54
2023/03/18 03:36:16;;;;;;;21.80;12.63;;;;;;;9.83;100.00;100689.91;5065097;28;20033;-53
2023/03/18 03:38:45;;;;;;;22.42;13.15;;;;;;;9.84;100.00;100690.72;5070348;28;20044;-54
2023/03/18 03:41:15;;;;;;;19.60;12.80;;;;;;;9.85;100.00;100695.06;5068681;28;20048;-53
2023/03/18 03:43:44;;;;;;;19.20;12.30;;;;;;;9.85;100.00;100697.69;5070944;28;20186;-52
2023/03/18 03:46:14;;;;;;;22.42;13.77;;;;;;;9.85;100.00;100697.69;5066571;28;20492;-54
2023/03/18 03:48:42;;;;;;;22.70;14.10;;;;;;;9.87;100.00;100699.28;5065659;28;20056;-53
2023/03/18 03:51:13;;;;;;;22.45;13.70;;;;;;;9.84;100.00;100702.06;5061973;28;20052;-54
2023/03/18 03:53:42;;;;;;;21.83;13.40;;;;;;;9.84;100.00;100712.59;5063078;28;20153;-53
2023/03/18 03:56:10;;;;;;;23.58;13.95;;;;;;;9.86;100.00;100704.59;5062770;28;20047;-53
2023/03/18 03:58:39;;;;;;;25.80;14.68;;;;;;;9.86;100.00;100709.84;5062539;28;20040;-53
2023/03/18 04:01:07;;;;;;;25.55;14.50;;;;;;;9.89;100.00;100718.38;5065672;28;20436;-50
2023/03/18 04:03:36;;;;;;;30.05;14.75;;;;;;;9.88;100.00;100719.31;5069740;28;20051;-53
2023/03/18 04:06:06;;;;;;;26.80;15.07;;;;;;;9.88;100.00;100719.31;5065168;28;20918;-53
2023/03/18 04:08:36;;;;;;;23.42;15.10;;;;;;;9.86;100.00;100715.97;5059856;28;20391;-52
2023/03/18 04:11:04;;;;;;;25.23;14.88;;;;;;;9.88;100.00;100726.38;5059161;28;20040;-52
2023/03/18 04:13:33;;;;;;;23.20;15.43;;;;;;;9.87;100.00;100722.91;5068335;28;20123;-52
2023/03/18 04:16:02;;;;;;;26.98;15.07;;;;;;;9.88;100.00;100729.00;5064403;28;20044;-52
2023/03/18 04:18:30;;;;;;;27.15;15.65;;;;;;;9.83;100.00;100718.81;5065707;28;20419;-53
2023/03/18 04:20:59;;;;;;;24.77;15.27;;;;;;;9.84;100.00;100724.88;5062712;28;20072;-52
2023/03/18 04:23:27;;;;;;;26.80;16.35;;;;;;;9.86;100.00;100725.63;5064251;28;21060;-52
2023/03/18 04:25:57;;;;;;;26.17;16.02;;;;;;;9.87;100.00;100720.28;5062910;28;20103;-52
2023/03/18 04:28:26;;;;;;;24.75;15.50;;;;;;;9.91;100.00;100719.16;5064708;28;20037;-53
2023/03/18 04:30:54;;;;;;;25.20;15.38;;;;;;;9.92;100.00;100720.81;5068494;28;20532;-53
2023/03/18 04:33:23;;;;;;;24.73;15.88;;;;;;;9.84;100.00;100725.72;5066583;28;20072;-53
2023/03/18 04:35:52;;;;;;;25.13;15.75;;;;;;;9.87;100.00;100717.66;5060122;28;20056;-53
2023/03/18 04:38:20;;;;;;;28.48;16.02;;;;;;;9.92;100.00;100730.50;5056178;28;20078;-53
2023/03/18 04:40:49;;;;;;;22.80;14.90;;;;;;;9.89;100.00;100728.91;5064612;28;20040;-52
2023/03/18 04:43:20;;;;;;;24.73;15.57;;;;;;;9.88;100.00;100724.56;5062603;28;20095;-52
2023/03/18 04:45:48;;;;;;;26.15;16.33;;;;;;;9.90;100.00;100727.97;5058848;28;20037;-53
2023/03/18 04:48:16;;;;;;;24.30;15.52;;;;;;;9.89;100.00;100735.94;5063703;28;20064;-52
2023/03/18 04:50:45;;;;;;;26.38;16.27;;;;;;;9.85;100.00;100735.28;5056165;28;20071;-52
2023/03/18 04:53:13;;;;;;;28.35;15.82;;;;;;;9.84;100.00;100732.75;5060424;28;20052;-53
2023/03/18 04:55:42;;;;;;;26.63;16.77;;;;;;;9.84;100.00;100730.97;5063222;28;20477;-54
2023/03/18 04:58:11;;;;;;;23.85;15.40;;;;;;;9.86;100.00;100733.50;5060382;28;20144;-52
2023/03/18 05:00:41;;;;;;;29.48;17.02;;;;;;;9.88;100.00;100740.34;5059167;28;20072;-52
2023/03/18 05:03:11;;;;;;;26.10;16.60;;;;;;;9.87;100.00;100733.41;5057518;28;20075;-51
2023/03/18 05:05:39;;;;;;;22.25;15.50;;;;;;;9.83;100.00;100731.94;5071118;28;20246;-53
2023/03/18 05:08:09;;;;;;;29.23;16.40;;;;;;;9.84;100.00;100736.22;5073785;28;20064;-52
2023/03/18 05:10:38;;;;;;;27.02;16.13;;;;;;;9.85;100.00;100737.09;5073547;28;20488;-52
2023/03/18 05:13:07;;;;;;;26.88;15.75;;;;;;;9.84;100.00;100735.38;5073663;28;20093;-53
2023/03/18 05:15:35;;;;;;;28.58;17.20;;;;;;;9.88;100.00;100739.50;5073476;28;20029;-53
2023/03/18 05:18:05;;;;;;;25.58;16.65;;;;;;;9.86;100.00;100736.97;5073750;28;20041;-53
2023/03/18 05:20:34;;;;;;;27.73;16.60;;;;;;;9.86;100.00;100741.38;5073454;28;20637;-53
2023/03/18 05:23:03;;;;;;;27.55;16.45;;;;;;;9.88;100.00;100739.50;5055086;28;20047;-52
2023/03/18 05:25:32;;;;;;;25.73;16.55;;;;;;;9.85;100.00;100735.28;5060406;28;20098;-50
2023/03/18 05:28:01;;;;;;;26.05;16.10;;;;;;;9.83;100.00;100745.06;5063485;28;20041;-50
2023/03/18 05:30:30;;;;;;;24.67;15.65;;;;;;;9.81;100.00;100741.69;5064007;28;20110;-53
2023/03/18 05:32:58;;;;;;;26.23;16.40;;;;;;;9.77;100.00;100742.81;5064830;28;20408;-53
2023/03/18 05:35:28;;;;;;;24.67;14.82;;;;;;;9.75;100.00;100744.72;5062969;28;20056;-50
2023/03/18 05:37:58;;;;;;;26.13;16.13;;;;;;;9.75;100.00;100744.72;5064336;28;20998;-52
2023/03/18 05:40:26;;;;;;;22.63;15.93;;;;;;;9.73;100.00;100746.56;5054339;28;20044;-52
2023/03/18 05:42:54;;;;;;;21.83;15.73;;;;;;;9.74;100.00;100756.16;5051306;28;20049;-52
2023/03/18 05:45:24;;;;;;;27.92;16.08;;;;;;;9.72;100.00;100761.50;5061421;28;20044;-51
2023/03/18 05:47:53;;;;;;;27.15;17.20;;;;;;;9.73;100.00;100757.91;5056683;28;20037;-52
2023/03/18 05:50:30;;;;;;;27.77;16.80;;;;;;;9.73;100.00;100751.81;5061410;28;20092;-53
2023/03/18 05:52:59;;;;;;;25.98;17.38;;;;;;;9.73;100.00;100741.31;5058991;28;20056;-53
2023/03/18 05:55:29;;;;;;;28.63;18.30;;;;;;;9.76;100.00;100749.00;5058046;28;20045;-54
2023/03/18 05:57:59;;;;;;;29.05;18.50;;;;;;;9.76;100.00;100757.75;5056758;28;20037;-53
2023/03/18 06:00:28;;;;;;;26.67;17.80;;;;;;;9.74;100.00;100761.41;5062147;28;20442;-52
2023/03/18 06:02:58;;;;;;;25.20;17.80;;;;;;;9.73;100.00;100780.72;5058350;28;20111;-52
2023/03/18 06:05:29;;;;;;;26.70;17.05;;;;;;;9.73;100.00;100778.91;5063625;28;20055;-53
2023/03/18 06:07:59;;;;;;;32.57;19.23;;;;;;;9.74;100.00;100782.41;5056964;28;20037;-53
2023/03/18 06:10:29;;;;;;;29.40;18.92;;;;;;;9.75;100.00;100790.19;5059607;28;20445;-53
2023/03/18 06:12:59;;;;;;;29.83;18.23;;;;;;;9.76;100.00;100798.91;5056246;28;20047;-53
2023/03/18 06:15:27;;;;;;;32.45;19.98;;;;;;;9.74;100.00;100795.53;5059836;28;20068;-53
2023/03/18 06:17:56;;;;;;;27.77;18.60;;;;;;;9.76;100.00;100801.53;5065607;28;20036;-51
2023/03/18 06:20:25;;;;;;;29.15;19.42;;;;;;;9.74;100.00;100785.03;5066415;28;20098;-50
2023/03/18 06:22:54;;;;;;;30.88;19.17;;;;;;;9.76;100.00;100788.41;5059674;28;20107;-53
2023/03/18 06:25:25;;;;;;;34.28;19.52;;;;;;;9.75;100.00;100781.47;5059471;28;20044;-52
2023/03/18 06:27:54;;;;;;;29.13;19.92;;;;;;;9.80;100.00;100789.88;5065224;28;20099;-53
2023/03/18 06:30:23;;;;;;;35.22;20.52;;;;;;;9.79;100.00;100790.84;5061362;28;20051;-52
2023/03/18 06:32:52;;;;;;;31.23;20.27;;;;;;;9.81;100.00;100795.03;5058909;28;20068;-53
2023/03/18 06:35:20;;;;;;;29.25;19.83;;;;;;;9.82;100.00;100809.03;5059706;28;20059;-51
2023/03/18 06:37:49;;;;;;;31.60;19.17;;;;;;;9.84;100.00;100801.88;5061811;28;20128;-53
2023/03/18 06:40:19;;;;;;;33.15;21.50;;;;;;;9.88;100.00;100797.28;5059779;28;20068;-53
2023/03/18 06:42:47;;;;;;;31.17;19.70;;;;;;;9.95;100.00;100799.44;5065856;28;20115;-52
2023/03/18 06:45:17;;;;;;;35.05;20.50;;;;;;;9.92;100.00;100807.50;5056770;28;20511;-52
2023/03/18 06:47:46;;;;;;;31.35;21.55;;;;;;;9.93;100.00;100809.19;5062898;28;20035;-52
2023/03/18 06:50:16;;;;;;;32.80;20.75;;;;;;;9.96;100.00;100806.38;5058226;28;20041;-52
2023/03/18 06:52:45;;;;;;;33.45;20.20;;;;;;;10.01;100.00;100810.50;5063575;28;20059;-52
2023/03/18 06:55:13;;;;;;;31.25;20.98;;;;;;;10.04;100.00;100812.94;5058536;28;20091;-52
2023/03/18 06:57:44;;;;;;;32.63;20.50;;;;;;;10.02;100.00;100815.66;5062313;28;20089;-52
2023/03/18 07:00:13;;;;;;;29.67;20.30;;;;;;;10.04;100.00;100813.78;5064263;28;20078;-50
2023/03/18 07:02:42;;;;;;;27.85;19.80;;;;;;;10.06;100.00;100809.28;5068765;28;20546;-52
2023/03/18 07:05:11;;;;;;;29.50;19.42;;;;;;;10.11;100.00;100808.97;5071933;28;20045;-49
2023/03/18 07:07:40;;;;;;;29.25;19.48;;;;;;;10.14;100.00;100807.00;5076028;28;20041;-51
2023/03/18 07:10:17;;;;;;;28.65;19.70;;;;;;;10.16;100.00;100814.78;5076382;28;20403;-52
2023/03/18 07:12:47;;;;;;;28.45;18.92;;;;;;;10.19;100.00;100816.38;5075742;28;20068;-51
2023/03/18 07:15:18;;;;;;;29.15;18.58;;;;;;;10.19;100.00;100821.63;5076949;28;20040;-51
2023/03/18 07:17:47;;;;;;;28.60;18.77;;;;;;;10.23;100.00;100829.22;5071694;28;20044;-52
2023/03/18 07:20:16;;;;;;;32.92;20.10;;;;;;;10.23;100.00;100823.13;5068104;28;20048;-49
2023/03/18 07:22:46;;;;;;;31.45;19.92;;;;;;;10.32;100.00;100838.28;5068268;28;20483;-50
2023/03/18 07:25:15;;;;;;;28.55;19.17;;;;;;;10.39;100.00;100844.03;5071219;28;20123;-53
2023/03/18 07:27:44;;;;;;;29.17;19.65;;;;;;;10.51;100.00;100837.13;5056668;28;20044;-52
2023/03/18 07:30:16;;;;;;;30.73;19.58;;;;;;;10.54;100.00;100837.78;5063556;28;20056;-52
2023/03/18 07:32:45;;;;;;;30.58;20.25;;;;;;;10.58;100.00;100847.16;5064487;28;20041;-51
2023/03/18 07:35:14;;;;;;;32.78;19.10;;;;;;;10.62;100.00;100850.44;5066677;28;20353;-53
2023/03/18 07:37:43;;;;;;;30.25;19.20;;;;;;;10.64;100.00;100844.13;5063782;28;20120;-51
2023/03/18 07:40:12;;;;;;;28.45;19.67;;;;;;;10.67;100.00;100856.22;5065352;28;20036;-51
2023/03/18 07:42:41;;;;;;;32.67;20.10;;;;;;;10.74;100.00;100859.31;5062535;28;20132;-51
2023/03/18 07:45:10;;;;;;;27.70;19.83;;;;;;;10.76;100.00;100857.44;5066418;28;20135;-53
2023/03/18 07:47:40;;;;;;;28.88;19.67;;;;;;;10.77;100.00;100865.22;5062856;28;20041;-50
2023/03/18 07:50:11;;;;;;;27.77;18.75;;;;;;;10.76;100.00;100860.06;5059007;28;21089;-52
2023/03/18 07:52:39;;;;;;;29.00;18.92;;;;;;;10.79;100.00;100865.13;5063075;28;20127;-52
2023/03/18 07:55:09;;;;;;;29.13;19.58;;;;;;;10.89;100.00;100863.56;5060486;28;20136;-49
2023/03/18 07:57:38;;;;;;;28.52;18.50;;;;;;;11.04;100.00;100860.84;5066964;28;20036;-52
2023/03/18 08:00:09;;;;;;;28.00;17.92;;;;;;;11.16;100.00;100860.03;5064452;28;20068;-52
2023/03/18 08:02:37;;;;;;;26.42;18.00;;;;;;;11.18;100.00;100867.81;5063211;28;20044;-52
2023/03/18 08:05:08;;;;;;;27.45;18.40;;;;;;;11.13;100.00;100871.59;5057376;28;20078;-51
2023/03/18 08:07:38;;;;;;;25.70;18.00;;;;;;;11.18;100.00;100880.97;5064682;28;21812;-51
2023/03/18 08:10:08;;;;;;;28.15;17.90;;;;;;;11.27;100.00;100889.09;5067835;28;20173;-49
2023/03/18 08:12:37;;;;;;;22.20;15.80;;;;;;;11.41;100.00;100893.47;5063764;28;20037;-53
2023/03/18 08:15:20;;;;;;;;;;;;;;;11.58;100.00;100887.03;5066915;28;20047;-51
2023/03/18 08:17:49;;;;;;;21.40;15.63;;;;;;;11.73;100.00;100882.50;5062885;28;19966;-53
2023/03/18 08:20:20;;;;;;;25.50;16.08;;;;;;;11.83;100.00;100883.56;5061724;28;20052;-52
2023/03/18 08:22:49;;;;;;;23.60;15.68;;;;;;;12.13;100.00;100892.91;5063790;28;20481;-52
2023/03/18 08:25:17;;;;;;;23.40;15.23;;;;;;;12.25;100.00;100890.34;5064290;28;20064;-52
2023/03/18 08:27:46;;;;;;;22.10;14.68;;;;;;;12.17;100.00;100897.03;5066609;28;20041;-51
2023/03/18 08:30:15;;;;;;;22.20;15.40;;;;;;;12.05;100.00;100899.66;5059334;28;20147;-49
2023/03/18 08:32:43;;;;;;;19.73;14.48;;;;;;;12.08;100.00;100894.16;5056473;28;20063;-52
2023/03/18 08:35:12;;;;;;;20.48;14.45;;;;;;;12.12;100.00;100903.53;5056128;28;20086;-53
2023/03/18 08:37:42;;;;;;;23.58;14.13;;;;;;;12.12;100.00;100908.81;5061465;28;20045;-51
2023/03/18 08:40:12;;;;;;;20.40;14.68;;;;;;;12.03;100.00;100907.69;5060241;28;20403;-52
2023/03/18 08:42:41;;;;;;;21.42;15.25;;;;;;;11.99;100.00;100911.50;5063370;28;20102;-53
2023/03/18 08:45:11;;;;;;;20.58;14.50;;;;;;;11.97;100.00;100914.22;5060705;28;20523;-52
2023/03/18 08:47:40;;;;;;;21.25;14.10;;;;;;;12.02;100.00;100915.72;5065492;28;20226;-52
2023/03/18 08:50:10;;;;;;;21.65;14.32;;;;;;;12.08;100.00;100909.97;5064524;28;20491;-51
2023/03/18 08:52:40;;;;;;;24.45;15.70;;;;;;;12.05;100.00;100916.31;5063318;28;20132;-50
2023/03/18 08:55:10;;;;;;;21.10;14.27;;;;;;;12.14;100.00;100909.56;5062588;28;20403;-49
2023/03/18 08:57:39;;;;;;;21.13;14.30;;;;;;;12.19;100.00;100915.38;5072045;28;20045;-48
2023/03/18 09:00:09;;;;;;;19.50;14.23;;;;;;;12.23;100.00;100919.47;5073852;28;20119;-48
2023/03/18 09:02:38;;;;;;;21.45;15.48;;;;;;;12.11;100.00;100917.69;5059875;28;20384;-50
2023/03/18 09:05:07;;;;;;;22.15;14.77;;;;;;;12.21;100.00;100923.16;5061923;28;20037;-48
2023/03/18 09:07:36;;;;;;;20.33;13.45;;;;;;;12.27;100.00;100915.66;5066689;28;20418;-49
2023/03/18 09:10:05;;;;;;;18.67;13.73;;;;;;;12.32;100.00;100908.28;5059133;28;20053;-51
2023/03/18 09:12:35;;;;;;;18.30;12.80;;;;;;;12.48;100.00;100921.19;5060468;28;20055;-49
2023/03/18 09:15:05;;;;;;;17.90;13.20;;;;;;;12.58;100.00;100924.00;5056924;28;20487;-52
2023/03/18 09:17:33;;;;;;;15.77;12.07;;;;;;;12.70;100.00;100922.25;5061765;28;20056;-50
2023/03/18 09:20:21;;;;;;;15.35;11.50;;;;;;;12.82;100.00;100909.97;5066110;28;20510;-51
2023/03/18 09:22:50;;;;;;;18.10;11.52;;;;;;;12.97;100.00;100919.41;5072716;28;20549;-52
2023/03/18 09:25:19;;;;;;;15.63;11.13;;;;;;;13.09;100.00;100920.28;5067562;28;20053;-52
2023/03/18 09:27:49;;;;;;;15.50;11.05;;;;;;;13.09;100.00;100927.34;5070225;28;20151;-52
2023/03/18 09:30:18;;;;;;;15.65;10.52;;;;;;;13.07;100.00;100929.28;5073343;28;20064;-51
2023/03/18 09:32:48;;;;;;;15.57;10.75;;;;;;;13.45;100.00;100917.66;5054946;28;20496;-51
2023/03/18 09:35:17;;;;;;;15.68;11.23;;;;;;;13.66;100.00;100920.44;5063144;28;20055;-51
2023/03/18 09:37:46;;;;;;;14.27;9.77;;;;;;;14.05;100.00;100918.31;5057370;28;20439;-51
2023/03/18 09:40:22;;;;;;;12.85;9.93;;;;;;;13.93;100.00;100920.09;5058747;28;20086;-50
2023/03/18 09:43:02;;;;;;;13.82;9.57;;;;;;;14.29;100.00;100927.91;5072694;28;20052;-48
2023/03/18 09:45:35;;;;;;;13.23;9.15;;;;;;;14.51;100.00;100914.66;5073078;28;20048;-51
2023/03/18 09:48:27;;;;;;;14.25;9.73;;;;;;;14.58;100.00;100912.34;5068763;28;20052;-51
2023/03/18 09:51:05;;;;;;;13.77;9.13;;;;;;;14.70;100.00;100914.03;5068911;28;20052;-50
2023/03/18 09:53:43;;;;;;;12.70;8.13;;;;;;;14.94;100.00;100917.44;5063876;28;20053;-52
2023/03/18 09:56:17;;;;;;;11.93;8.15;;;;;;;15.35;100.00;100923.72;5048952;28;20052;-52
2023/03/18 09:58:52;;;;;;;12.18;8.52;;;;;;;15.63;100.00;100932.00;5053632;28;20051;-51
2023/03/18 10:01:26;;;;;;;13.20;8.27;;;;;;;15.68;100.00;100937.78;5064524;28;20040;-53
2023/03/18 10:04:00;;;;;;;11.07;7.75;;;;;;;15.64;100.00;100939.84;5072884;28;20503;-52
2023/03/18 10:06:29;;;;;;;10.75;8.07;;;;;;;15.71;100.00;100940.16;5071988;28;20048;-52
2023/03/18 10:09:07;;;;;;;10.68;7.57;;;;;;;15.94;100.00;100935.56;5068038;28;20056;-51
2023/03/18 10:11:41;;;;;;;13.88;8.63;;;;;;;15.88;100.00;100933.41;5066395;28;20106;-50
2023/03/18 10:14:21;;;;;;;12.32;8.30;;;;;;;16.08;100.00;100933.53;5048256;28;20060;-52
2023/03/18 10:17:01;;;;;;;12.70;8.65;;;;;;;15.75;100.00;100938.91;5049629;28;20041;-51
2023/03/18 10:19:30;;;;;;;11.40;8.52;;;;;;;15.95;100.00;100934.59;5049179;28;20051;-51
2023/03/18 10:22:16;;;;;;;13.82;8.80;;;;;;;16.00;100.00;100932.34;5064072;28;20487;-52
2023/03/18 10:24:51;;;;;;;15.13;8.80;;;;;;;16.12;100.00;100940.25;5071803;28;20056;-53
2023/03/18 10:27:33;;;;;;;11.82;8.18;;;;;;;16.26;100.00;100939.84;5068978;28;20047;-53
2023/03/18 10:30:13;;;;;;;12.75;8.57;;;;;;;16.09;100.00;100946.66;5072198;28;20041;-53
2023/03/18 10:32:53;;;;;;;10.52;8.20;;;;;;;16.48;100.00;100941.44;5060779;28;20094;-53
2023/03/18 10:35:30;;;;;;;11.90;8.50;;;;;;;16.74;100.00;100938.28;5047856;28;20049;-53
2023/03/18 10:38:04;;;;;;;11.70;8.18;;;;;;;16.96;100.00;100931.91;5048492;28;20494;-51
2023/03/18 10:40:37;;;;;;;11.63;7.72;;;;;;;17.17;100.00;100944.22;5048325;28;20106;-47
2023/03/18 10:43:15;;;;;;;9.93;6.65;;;;;;;17.32;100.00;100942.81;5055950;28;20055;-48
2023/03/18 10:45:48;;;;;;;9.25;6.10;;;;;;;17.47;100.00;100937.88;5062038;28;20123;-49
2023/03/18 10:48:21;;;;;;;9.07;5.70;;;;;;;17.85;100.00;100940.59;5072104;28;20071;-47
2023/03/18 10:50:58;;;;;;;8.85;5.90;;;;;;;18.08;100.00;100925.97;5071892;28;20037;-48
2023/03/18 10:53:30;;;;;;;10.48;5.63;;;;;;;18.40;100.00;100924.66;5073232;28;20412;-53
2023/03/18 10:56:05;;;;;;;9.97;6.27;;;;;;;18.34;100.00;100914.63;5072156;28;20071;-47
2023/03/18 10:58:33;;;;;;;10.32;5.93;;;;;;;18.44;100.00;100914.56;5068535;28;20827;-49
2023/03/18 11:01:06;;;;;;;8.63;5.43;;;;;;;18.36;100.00;100915.31;5067004;28;20063;-49
2023/03/18 11:03:35;;;;;;;;;;;;;;;18.66;100.00;100913.28;5050395;28;20052;-49
2023/03/18 11:06:06;;;;;;;8.18;4.40;;;;;;;18.69;100.00;100917.47;5047712;28;19921;-49
2023/03/18 11:08:38;;;;;;;8.10;5.07;;;;;;;18.89;100.00;100911.03;5062814;28;20457;-51
2023/03/18 11:11:22;;;;;;;8.98;5.00;;;;;;;19.36;100.00;100909.06;5059955;28;20064;-51
2023/03/18 11:13:53;;;;;;;7.30;4.28;;;;;;;19.26;100.00;100898.50;5057769;28;20523;-51
2023/03/18 11:16:30;;;;;;;8.63;4.60;;;;;;;18.98;100.00;100901.31;5060009;28;20447;-53
2023/03/18 11:18:59;;;;;;;8.10;4.13;;;;;;;18.84;100.00;100907.13;5056933;28;20043;-53
2023/03/18 11:21:30;;;;;;;7.35;4.30;;;;;;;18.88;100.00;100900.53;5060481;28;20049;-49
2023/03/18 11:24:19;;;;;;;8.43;4.20;;;;;;;19.10;100.00;100899.22;5064423;28;20059;-50